Time;durP1;ratioP1;P1;durP2;ratioP2;P2;SDS_P1;SDS_P2;PMS_P1;PMS_P2;Temp;Humidity;BMP_temperature;BMP_pressure;BME280_temperature;BME280_humidity;BME280_pressure;Samples;Min_cycle;Max_cycle;Signal;HPM_P1;HPM_P2
2022/09/19 00:01:52;;;;;;;0.90;0.90;;;;;;;4.66;nan;96691.47;5009721;28;20204;-55
2022/09/19 00:04:23;;;;;;;0.90;0.90;;;;;;;4.74;nan;96687.06;5015463;28;20243;-55
2022/09/19 00:06:53;;;;;;;3.00;1.03;;;;;;;4.83;nan;96690.56;5011353;28;20211;-59
2022/09/19 00:09:23;;;;;;;1.37;1.07;;;;;;;4.86;nan;96687.59;4963692;28;20216;-54
2022/09/19 00:11:52;;;;;;;1.60;1.00;;;;;;;4.78;nan;96680.53;5009692;28;21003;-58
2022/09/19 00:14:23;;;;;;;0.87;0.87;;;;;;;4.87;nan;96702.38;5013005;28;21596;-55
2022/09/19 00:16:55;;;;;;;0.77;0.77;;;;;;;4.78;nan;96700.72;5009840;28;20910;-59
2022/09/19 00:19:26;;;;;;;2.73;0.83;;;;;;;4.64;nan;96704.75;5009966;28;20205;-55
2022/09/19 00:21:57;;;;;;;0.70;0.70;;;;;;;4.57;nan;96699.31;5012919;28;20995;-55
2022/09/19 00:27:14;;;;;;;0.70;0.70;;;;;;;4.47;nan;96694.19;5008187;28;20219;-59
2022/09/19 00:29:43;;;;;;;2.07;1.23;;;;;;;4.43;nan;96697.31;5012376;28;20259;-55
2022/09/19 00:32:12;;;;;;;1.33;1.23;;;;;;;4.41;nan;96686.94;5010734;28;20607;-55
2022/09/19 00:34:43;;;;;;;1.67;1.53;;;;;;;4.29;nan;96685.59;5009853;28;20955;-55
2022/09/19 00:37:12;;;;;;;1.30;1.30;;;;;;;4.23;nan;96694.09;5010930;28;20212;-58
2022/09/19 00:39:41;;;;;;;1.20;1.10;;;;;;;4.01;nan;96673.50;4965253;28;20215;-55
2022/09/19 00:42:15;;;;;;;2.23;1.20;;;;;;;4.01;nan;96688.38;5010380;28;20584;-54
2022/09/19 00:44:56;;;;;;;1.00;1.00;;;;;;;3.92;nan;96684.88;5009097;28;20235;-59
2022/09/19 00:47:29;;;;;;;0.90;0.90;;;;;;;3.83;nan;96678.78;5010554;28;20214;-55
2022/09/19 00:50:00;;;;;;;1.07;1.07;;;;;;;3.75;nan;96676.09;5010616;28;20259;-55
2022/09/19 00:52:36;;;;;;;0.90;0.90;;;;;;;3.74;nan;96677.91;5014135;28;20978;-55
2022/09/19 00:55:04;;;;;;;1.37;1.30;;;;;;;3.64;nan;96676.34;5011383;28;20228;-56
2022/09/19 00:57:40;;;;;;;1.33;1.20;;;;;;;3.64;nan;96682.41;4914317;28;20227;-57
2022/09/19 01:00:09;;;;;;;1.13;1.13;;;;;;;3.59;nan;96685.47;5008687;28;20932;-53
2022/09/19 01:06:15;;;;;;;1.00;1.00;;;;;;;3.45;nan;96684.22;5015212;28;20207;-53
2022/09/19 01:08:56;;;;;;;2.20;1.47;;;;;;;3.48;nan;96699.63;5010397;28;20208;-53
2022/09/19 01:11:49;;;;;;;1.70;1.13;;;;;;;3.50;nan;96696.88;5016519;28;20942;-54
2022/09/19 01:14:26;;;;;;;1.20;1.20;;;;;;;3.42;nan;96702.84;4983346;28;20298;-56
2022/09/19 01:17:00;;;;;;;1.10;1.10;;;;;;;3.40;nan;96703.97;4976671;28;20223;-57
2022/09/19 01:19:53;;;;;;;1.20;1.20;;;;;;;3.35;nan;96703.59;5003412;28;20883;-60
2022/09/19 01:22:27;;;;;;;1.07;1.07;;;;;;;3.40;nan;96702.19;4978861;28;20209;-54
2022/09/19 01:25:00;;;;;;;1.37;1.27;;;;;;;3.38;nan;96703.31;5010124;28;20239;-54
2022/09/19 01:28:03;;;;;;;1.03;1.03;;;;;;;3.44;nan;96703.53;5009982;28;20976;-57
2022/09/19 01:30:34;;;;;;;2.20;1.20;;;;;;;3.57;nan;96705.78;4957461;28;20954;-58
2022/09/19 01:33:07;;;;;;;1.30;1.30;;;;;;;3.73;nan;96705.06;5009684;28;20231;-60
2022/09/19 01:35:38;;;;;;;1.83;1.73;;;;;;;3.73;nan;96705.06;5006861;28;20208;-57
2022/09/19 01:38:10;;;;;;;3.50;2.33;;;;;;;3.83;nan;96707.59;4990546;28;20216;-54
2022/09/19 01:40:38;;;;;;;1.00;1.00;;;;;;;3.88;nan;96712.38;5012074;28;20211;-57
2022/09/19 01:43:12;;;;;;;1.20;1.20;;;;;;;3.93;nan;96723.22;5014922;28;20664;-54
2022/09/19 01:45:43;;;;;;;0.90;0.90;;;;;;;4.00;nan;96715.56;4964091;28;20208;-58
2022/09/19 01:48:16;;;;;;;1.20;1.20;;;;;;;4.07;nan;96718.41;5013486;28;20212;-55
2022/09/19 01:51:02;;;;;;;2.23;1.23;;;;;;;4.18;nan;96715.53;5014623;28;20207;-57
2022/09/19 01:53:39;;;;;;;1.20;1.20;;;;;;;4.24;nan;96714.09;4994180;28;20259;-54
2022/09/19 01:56:11;;;;;;;0.97;0.97;;;;;;;4.28;nan;96724.09;5015885;28;20588;-53
2022/09/19 01:58:43;;;;;;;1.10;1.10;;;;;;;4.43;nan;96724.34;5012952;28;20205;-57
2022/09/19 02:01:19;;;;;;;1.10;1.10;;;;;;;4.29;nan;96698.69;4971590;28;20655;-55
2022/09/19 02:03:53;;;;;;;1.20;1.20;;;;;;;4.44;nan;96720.72;5013139;28;20240;-58
2022/09/19 02:06:26;;;;;;;1.00;1.00;;;;;;;4.45;nan;96719.75;5010166;28;20252;-55
2022/09/19 02:09:00;;;;;;;1.10;1.10;;;;;;;4.41;nan;96720.25;4992035;28;20212;-54
2022/09/19 02:11:29;;;;;;;1.10;1.10;;;;;;;4.40;nan;96716.78;5012582;28;20196;-55
2022/09/19 02:14:01;;;;;;;1.00;1.00;;;;;;;4.45;nan;96726.81;5016698;28;20243;-57
2022/09/19 02:16:36;;;;;;;2.83;1.43;;;;;;;4.52;nan;96719.13;4969766;28;20719;-54
2022/09/19 02:19:08;;;;;;;1.20;1.20;;;;;;;4.49;nan;96734.19;5008236;28;20204;-55
2022/09/19 02:21:40;;;;;;;1.10;1.10;;;;;;;4.57;nan;96728.19;5014468;28;20304;-54
2022/09/19 02:24:13;;;;;;;1.63;1.33;;;;;;;4.67;nan;96735.94;4991347;28;20965;-56
2022/09/19 02:26:43;;;;;;;1.97;1.77;;;;;;;4.67;nan;96729.84;5015373;28;20210;-59
2022/09/19 02:29:14;;;;;;;1.00;1.00;;;;;;;4.72;nan;96719.69;5012673;28;20205;-54
2022/09/19 02:31:46;;;;;;;1.37;1.37;;;;;;;4.69;nan;96725.25;5014434;28;21040;-58
2022/09/19 02:34:15;;;;;;;1.80;1.33;;;;;;;4.74;nan;96718.56;4964681;28;20950;-55
2022/09/19 02:36:46;;;;;;;4.17;1.63;;;;;;;4.76;nan;96726.31;5011824;28;20208;-60
2022/09/19 02:39:20;;;;;;;1.40;1.40;;;;;;;4.69;nan;96714.78;5006992;28;20215;-54
2022/09/19 02:41:56;;;;;;;1.70;1.13;;;;;;;4.83;nan;96724.69;5010335;28;20285;-59
2022/09/19 02:44:31;;;;;;;2.70;1.83;;;;;;;4.86;nan;96728.78;5010470;28;20227;-55
2022/09/19 02:47:05;;;;;;;1.30;1.30;;;;;;;4.86;nan;96724.34;5015265;28;20227;-53
2022/09/19 02:49:39;;;;;;;3.03;1.70;;;;;;;4.93;nan;96730.63;4966305;28;20208;-59
2022/09/19 02:52:12;;;;;;;1.80;1.70;;;;;;;4.96;nan;96740.00;5013359;28;20219;-56
2022/09/19 02:54:43;;;;;;;1.87;1.70;;;;;;;4.96;nan;96739.16;4992314;28;20820;-56
2022/09/19 02:57:13;;;;;;;2.97;1.80;;;;;;;5.07;nan;96739.69;5013127;28;20231;-56
2022/09/19 02:59:44;;;;;;;1.73;1.63;;;;;;;5.05;nan;96733.78;5014300;28;20312;-57
2022/09/19 03:02:17;;;;;;;2.77;1.70;;;;;;;5.07;nan;96726.56;4979966;28;20913;-57
2022/09/19 03:04:48;;;;;;;2.37;2.20;;;;;;;5.05;nan;96733.78;4966988;28;20247;-56
2022/09/19 03:07:19;;;;;;;2.10;2.00;;;;;;;5.01;nan;96724.56;5009172;28;20819;-55
2022/09/19 03:09:52;;;;;;;2.00;1.90;;;;;;;5.10;nan;96724.59;5013322;28;20218;-57
2022/09/19 03:12:23;;;;;;;2.23;2.13;;;;;;;4.98;nan;96726.69;4957625;28;22018;-57
2022/09/19 03:14:58;;;;;;;2.20;2.10;;;;;;;5.11;nan;96742.00;5011957;28;20235;-58
2022/09/19 03:17:31;;;;;;;1.70;1.70;;;;;;;5.06;nan;96726.69;4933745;28;20219;-56
2022/09/19 03:20:00;;;;;;;1.90;1.80;;;;;;;5.05;nan;96730.31;5012215;28;20210;-57
2022/09/19 03:22:29;;;;;;;3.70;2.20;;;;;;;4.99;nan;96713.41;4990287;28;20917;-54
2022/09/19 03:25:01;;;;;;;2.50;2.30;;;;;;;5.14;nan;96731.16;5012755;28;20236;-55
2022/09/19 03:27:30;;;;;;;2.50;2.30;;;;;;;5.17;nan;96720.31;5009536;28;20239;-54
2022/09/19 03:29:58;;;;;;;2.20;2.10;;;;;;;5.13;nan;96732.97;5014207;28;20216;-53
2022/09/19 03:32:28;;;;;;;2.00;1.90;;;;;;;5.17;nan;96736.09;4961857;28;20247;-56
2022/09/19 03:34:56;;;;;;;4.30;2.67;;;;;;;5.14;nan;96742.50;5011799;28;20220;-55
2022/09/19 03:37:25;;;;;;;2.60;2.40;;;;;;;5.28;nan;96727.09;4996538;28;20219;-54
2022/09/19 03:39:54;;;;;;;2.63;2.20;;;;;;;5.24;nan;96737.09;5010670;28;20216;-55
2022/09/19 03:42:24;;;;;;;2.53;2.33;;;;;;;5.17;nan;96722.97;5010990;28;20704;-56
2022/09/19 03:44:52;;;;;;;2.70;2.50;;;;;;;5.26;nan;96742.19;4981490;28;20612;-55
2022/09/19 03:47:22;;;;;;;2.27;2.03;;;;;;;5.27;nan;96739.38;4965013;28;20223;-55
2022/09/19 03:49:51;;;;;;;2.70;2.50;;;;;;;5.24;nan;96752.03;5010350;28;20216;-54
2022/09/19 03:52:20;;;;;;;2.30;2.20;;;;;;;5.18;nan;96737.72;5013044;28;20672;-53
2022/09/19 03:54:49;;;;;;;2.63;2.50;;;;;;;5.29;nan;96744.50;4989014;28;20247;-55
2022/09/19 03:57:17;;;;;;;6.47;2.33;;;;;;;5.26;nan;96740.38;5014037;28;20720;-55
2022/09/19 03:59:46;;;;;;;2.60;2.40;;;;;;;5.30;nan;96746.13;5013234;28;20242;-56
2022/09/19 04:02:14;;;;;;;2.97;2.70;;;;;;;5.26;nan;96748.25;4968263;28;20819;-55
2022/09/19 04:04:42;;;;;;;2.60;2.40;;;;;;;5.30;nan;96746.13;5009673;28;20273;-55
2022/09/19 04:07:13;;;;;;;2.83;2.63;;;;;;;5.31;nan;96753.03;5011982;28;20950;-55
2022/09/19 04:09:41;;;;;;;3.80;2.33;;;;;;;5.30;nan;96752.22;4993059;28;20743;-55
2022/09/19 04:12:10;;;;;;;4.67;2.67;;;;;;;5.35;nan;96759.59;5008541;28;20212;-56
2022/09/19 04:14:38;;;;;;;4.10;3.03;;;;;;;5.35;nan;96765.69;5015204;28;20598;-54
2022/09/19 04:17:07;;;;;;;2.93;2.73;;;;;;;5.41;nan;96760.78;4968904;28;21132;-55
2022/09/19 04:19:52;;;;;;;2.93;2.63;;;;;;;5.29;nan;96755.00;5006455;28;20699;-53
2022/09/19 04:22:22;;;;;;;2.40;2.30;;;;;;;5.40;nan;96769.63;5015278;28;20205;-55
2022/09/19 04:24:52;;;;;;;2.90;2.70;;;;;;;5.31;nan;96748.63;4986237;28;20247;-54
2022/09/19 04:27:20;;;;;;;2.47;2.30;;;;;;;5.43;nan;96772.75;5011555;28;20219;-58
2022/09/19 04:29:48;;;;;;;2.40;2.30;;;;;;;5.46;nan;96772.41;5009439;28;20212;-55
2022/09/19 04:32:17;;;;;;;3.30;2.20;;;;;;;5.53;nan;96774.44;5012638;28;20251;-57
2022/09/19 04:34:47;;;;;;;3.00;2.70;;;;;;;5.51;nan;96774.56;4964243;28;20750;-56
2022/09/19 04:37:15;;;;;;;3.17;2.97;;;;;;;5.52;nan;96773.59;5013982;28;20206;-53
2022/09/19 04:39:48;;;;;;;3.57;2.90;;;;;;;5.57;nan;96783.63;5003242;28;20212;-56
2022/09/19 04:42:16;;;;;;;2.63;2.53;;;;;;;5.50;nan;96786.91;5008130;28;20212;-56
2022/09/19 04:44:45;;;;;;;2.90;2.70;;;;;;;5.54;nan;96804.97;5009987;28;20222;-54
2022/09/19 04:47:14;;;;;;;4.10;3.80;;;;;;;5.61;nan;96798.91;5011837;28;20235;-58
2022/09/19 04:49:42;;;;;;;2.63;2.43;;;;;;;5.61;nan;96792.84;4957941;28;20231;-51
2022/09/19 04:52:12;;;;;;;3.70;3.50;;;;;;;5.60;nan;96806.97;5009049;28;21053;-55
2022/09/19 04:54:41;;;;;;;6.07;2.77;;;;;;;5.61;nan;96795.47;5009253;28;20228;-52
2022/09/19 04:57:11;;;;;;;2.80;2.70;;;;;;;5.61;nan;96803.34;4987533;28;20289;-55
2022/09/19 04:59:39;;;;;;;2.73;2.53;;;;;;;5.66;nan;96814.19;5010131;28;20915;-53
2022/09/19 05:02:08;;;;;;;3.00;2.80;;;;;;;5.70;nan;96809.44;5010759;28;20200;-55
2022/09/19 05:04:38;;;;;;;4.73;2.77;;;;;;;5.68;nan;96812.22;4962515;28;20235;-55
2022/09/19 05:07:08;;;;;;;3.20;2.97;;;;;;;5.76;nan;96812.22;4983577;28;20232;-56
2022/09/19 05:09:36;;;;;;;2.53;2.37;;;;;;;5.74;nan;96822.09;5006190;28;20907;-54
2022/09/19 05:12:09;;;;;;;5.43;3.03;;;;;;;5.76;nan;96822.75;4993968;28;20219;-51
2022/09/19 05:14:39;;;;;;;3.50;3.20;;;;;;;5.93;nan;96828.03;4986547;28;20224;-54
2022/09/19 05:17:07;;;;;;;3.03;2.70;;;;;;;6.13;nan;96825.09;5008406;28;20204;-53
2022/09/19 05:19:36;;;;;;;2.70;2.50;;;;;;;6.05;nan;96831.16;4964436;28;20219;-56
2022/09/19 05:22:04;;;;;;;2.80;2.70;;;;;;;5.99;nan;96840.53;5006757;28;20829;-56
2022/09/19 05:24:35;;;;;;;3.30;3.10;;;;;;;5.99;nan;96837.06;4957560;28;20220;-55
2022/09/19 05:27:04;;;;;;;6.60;4.33;;;;;;;5.94;nan;96830.47;5008625;28;20875;-52
2022/09/19 05:29:39;;;;;;;3.37;3.10;;;;;;;6.01;nan;96843.84;4991097;28;20208;-50
2022/09/19 05:32:09;;;;;;;3.07;2.77;;;;;;;6.08;nan;96842.19;5007475;28;20250;-53
2022/09/19 05:34:37;;;;;;;2.97;2.70;;;;;;;6.04;nan;96850.56;4991251;28;21236;-52
2022/09/19 05:37:05;;;;;;;3.03;2.80;;;;;;;6.10;nan;96855.19;5008719;28;20216;-52
2022/09/19 05:39:34;;;;;;;3.90;3.03;;;;;;;6.08;nan;96857.19;4947253;28;20216;-55
2022/09/19 05:42:02;;;;;;;3.17;2.97;;;;;;;6.11;nan;96850.75;5007173;28;20212;-53
2022/09/19 05:44:31;;;;;;;3.10;2.70;;;;;;;6.12;nan;96855.84;5009635;28;20816;-56
2022/09/19 05:46:59;;;;;;;2.90;2.70;;;;;;;6.20;nan;96862.91;5011784;28;20239;-53
2022/09/19 05:49:30;;;;;;;3.10;2.80;;;;;;;6.22;nan;96861.78;4990430;28;20282;-58
2022/09/19 05:53:51;;;;;;;2.63;2.43;;;;;;;6.21;nan;96868.03;5010077;28;20212;-57
2022/09/19 05:54:45;;;;;;;2.90;2.70;;;;;;;6.31;nan;96877.56;4964315;28;20232;-56
2022/09/19 05:57:15;;;;;;;2.80;2.60;;;;;;;6.26;nan;96882.50;5006167;28;20201;-55
2022/09/19 05:59:43;;;;;;;3.03;2.87;;;;;;;6.23;nan;96884.47;5008350;28;20261;-54
2022/09/19 06:02:12;;;;;;;2.60;2.50;;;;;;;6.27;nan;96889.41;5008311;28;20213;-55
2022/09/19 06:04:44;;;;;;;2.70;2.60;;;;;;;6.29;nan;96887.41;4998807;28;20647;-50
2022/09/19 06:07:13;;;;;;;2.93;2.73;;;;;;;6.44;nan;96895.50;4998741;28;20244;-57
2022/09/19 06:09:42;;;;;;;2.30;2.20;;;;;;;6.48;nan;96896.78;4989193;28;20208;-54
2022/09/19 06:12:10;;;;;;;4.33;3.00;;;;;;;6.43;nan;96894.66;4992995;28;20216;-54
2022/09/19 06:14:39;;;;;;;3.73;2.70;;;;;;;6.47;nan;96906.53;5013267;28;20233;-54
2022/09/19 06:17:08;;;;;;;2.20;2.10;;;;;;;6.61;nan;96906.84;5010441;28;20210;-57
2022/09/19 06:19:36;;;;;;;3.20;2.73;;;;;;;6.53;nan;96905.03;5011078;28;20204;-56
2022/09/19 06:22:06;;;;;;;4.10;2.67;;;;;;;6.57;nan;96906.31;4996976;28;20207;-55
2022/09/19 06:24:34;;;;;;;2.70;2.50;;;;;;;6.59;nan;96916.72;5014059;28;20250;-55
2022/09/19 06:27:03;;;;;;;2.80;2.60;;;;;;;6.69;nan;96913.91;4964658;28;20228;-54
2022/09/19 06:29:31;;;;;;;3.87;2.53;;;;;;;6.69;nan;96913.91;5011522;28;20208;-56
2022/09/19 06:32:02;;;;;;;3.10;2.90;;;;;;;6.66;nan;96910.63;5012505;28;20240;-58
2022/09/19 06:34:30;;;;;;;2.93;2.10;;;;;;;6.69;nan;96914.72;5015195;28;20323;-54
2022/09/19 06:37:20;;;;;;;2.60;2.40;;;;;;;6.66;nan;96920.31;4994043;28;20207;-54
2022/09/19 06:39:49;;;;;;;2.40;2.30;;;;;;;6.77;nan;96924.44;5012887;28;20212;-52
2022/09/19 06:42:17;;;;;;;2.57;2.37;;;;;;;6.65;nan;96922.16;4965954;28;20232;-53
2022/09/19 06:44:45;;;;;;;2.40;2.30;;;;;;;6.62;nan;96930.34;5009529;28;20720;-52
2022/09/19 06:47:14;;;;;;;2.80;2.60;;;;;;;6.64;nan;96933.66;5013889;28;20224;-54
2022/09/19 06:49:42;;;;;;;2.73;2.53;;;;;;;6.78;nan;96941.88;5012785;28;20204;-54
2022/09/19 06:52:16;;;;;;;4.47;2.97;;;;;;;6.88;nan;96937.25;4995502;28;20583;-53
2022/09/19 06:54:45;;;;;;;2.53;2.33;;;;;;;6.98;nan;96938.88;5012445;28;20239;-53
2022/09/19 06:57:14;;;;;;;2.83;2.63;;;;;;;7.07;nan;96946.59;4968155;28;20211;-57
2022/09/19 06:59:42;;;;;;;2.90;2.70;;;;;;;7.16;nan;96957.97;5011277;28;20212;-53
2022/09/19 07:02:11;;;;;;;2.57;2.37;;;;;;;7.08;nan;96953.50;5010386;28;20212;-50
2022/09/19 07:04:40;;;;;;;2.90;2.70;;;;;;;6.97;nan;96947.75;5010523;28;20224;-55
2022/09/19 07:07:08;;;;;;;5.17;3.00;;;;;;;7.14;nan;96965.22;4993432;28;20810;-56
2022/09/19 07:09:37;;;;;;;2.53;2.43;;;;;;;7.17;nan;96974.56;5011110;28;20980;-54
2022/09/19 07:12:08;;;;;;;3.23;2.40;;;;;;;7.31;nan;96971.28;5012269;28;20205;-56
2022/09/19 07:14:37;;;;;;;3.73;2.40;;;;;;;7.36;nan;96962.84;4965661;28;20267;-54
2022/09/19 07:17:06;;;;;;;2.60;2.47;;;;;;;7.44;nan;96965.47;5012790;28;20193;-56
2022/09/19 07:19:34;;;;;;;2.67;2.40;;;;;;;7.43;nan;96984.91;5013906;28;20208;-55
2022/09/19 07:22:05;;;;;;;2.20;2.10;;;;;;;7.36;nan;96979.50;4996714;28;20216;-56
2022/09/19 07:24:33;;;;;;;1.73;1.73;;;;;;;7.48;nan;96985.22;5014610;28;20225;-54
2022/09/19 07:27:02;;;;;;;2.13;2.03;;;;;;;7.60;nan;96995.41;5010078;28;20909;-55
2022/09/19 07:29:31;;;;;;;3.53;2.30;;;;;;;7.70;nan;96996.03;4944074;28;20232;-54
2022/09/19 07:32:01;;;;;;;2.07;1.97;;;;;;;7.88;nan;96997.63;4947499;28;20679;-56
2022/09/19 07:34:32;;;;;;;3.07;2.30;;;;;;;7.87;nan;96991.50;4990513;28;20236;-52
2022/09/19 07:37:00;;;;;;;2.20;2.00;;;;;;;8.03;nan;97009.09;4995849;28;20212;-53
2022/09/19 07:39:28;;;;;;;1.80;1.70;;;;;;;8.17;nan;97006.72;4994953;28;20735;-55
2022/09/19 07:42:14;;;;;;;1.87;1.77;;;;;;;8.14;nan;97010.53;5012571;28;20206;-57
2022/09/19 07:44:44;;;;;;;2.77;2.40;;;;;;;8.15;nan;97016.63;5011625;28;20224;-53
2022/09/19 07:47:28;;;;;;;1.40;1.40;;;;;;;8.33;nan;97022.47;4967550;28;20235;-54
2022/09/19 07:49:56;;;;;;;2.23;2.00;;;;;;;8.23;nan;97020.03;5009548;28;20687;-56
2022/09/19 07:52:25;;;;;;;2.03;1.93;;;;;;;8.33;nan;97030.38;4995554;28;20215;-58
2022/09/19 07:54:53;;;;;;;4.07;3.63;;;;;;;8.49;nan;97026.00;4995189;28;21390;-56
2022/09/19 07:57:22;;;;;;;2.80;2.60;;;;;;;8.51;nan;97031.94;4998633;28;20209;-55
2022/09/19 07:59:52;;;;;;;2.67;2.40;;;;;;;8.60;nan;97036.22;5005291;28;20936;-57
2022/09/19 08:02:21;;;;;;;2.37;2.27;;;;;;;8.56;nan;97048.13;4963597;28;20608;-57
2022/09/19 08:04:49;;;;;;;2.57;2.30;;;;;;;8.57;nan;97039.19;5008388;28;20217;-54
2022/09/19 08:07:18;;;;;;;2.60;2.40;;;;;;;8.90;nan;97043.44;5011224;28;20224;-56
2022/09/19 08:09:46;;;;;;;3.53;2.57;;;;;;;9.28;nan;97046.09;4994171;28;20212;-55
2022/09/19 08:12:14;;;;;;;3.27;2.97;;;;;;;9.51;nan;97051.31;4994907;28;20588;-57
2022/09/19 08:14:43;;;;;;;2.80;2.60;;;;;;;9.21;nan;97045.16;4990020;28;20243;-59
2022/09/19 08:17:13;;;;;;;4.37;1.90;;;;;;;9.28;nan;97056.66;4967352;28;20215;-55
2022/09/19 08:19:42;;;;;;;6.03;3.27;;;;;;;9.21;nan;97058.38;5008268;28;20212;-57
2022/09/19 08:22:12;;;;;;;7.77;6.37;;;;;;;9.49;nan;97053.34;4992420;28;20204;-53
2022/09/19 08:24:40;;;;;;;3.57;3.27;;;;;;;9.61;nan;97055.53;4992724;28;20239;-58
2022/09/19 08:27:08;;;;;;;2.60;2.30;;;;;;;9.72;nan;97057.75;4991844;28;20224;-57
2022/09/19 08:29:38;;;;;;;2.37;2.17;;;;;;;9.65;nan;97062.09;5009505;28;20845;-57
2022/09/19 08:32:07;;;;;;;1.70;1.60;;;;;;;9.53;nan;97056.44;4963269;28;20230;-56
2022/09/19 08:34:37;;;;;;;2.00;1.90;;;;;;;9.46;nan;97063.44;5007903;28;20933;-57
2022/09/19 08:37:06;;;;;;;1.97;1.87;;;;;;;9.68;nan;97075.00;5010163;28;20208;-57
2022/09/19 08:39:34;;;;;;;14.67;3.70;;;;;;;9.95;nan;97073.53;4995702;28;20216;-56
2022/09/19 08:42:10;;;;;;;3.97;2.07;;;;;;;9.88;nan;97082.38;4972774;28;20212;-59
2022/09/19 08:44:50;;;;;;;2.07;1.97;;;;;;;9.99;nan;97084.56;5012044;28;20223;-59
2022/09/19 08:47:21;;;;;;;2.03;1.93;;;;;;;10.20;nan;97078.53;5003259;28;20208;-56
2022/09/19 08:49:53;;;;;;;2.90;1.87;;;;;;;10.24;nan;97082.47;4990031;28;20201;-57
2022/09/19 08:52:30;;;;;;;1.93;1.83;;;;;;;10.31;nan;97087.84;5008313;28;20204;-57
2022/09/19 08:54:59;;;;;;;1.70;1.60;;;;;;;10.25;nan;97077.97;4995721;28;20231;-59
2022/09/19 08:57:31;;;;;;;3.97;2.20;;;;;;;10.23;nan;97085.28;4992859;28;20204;-56
2022/09/19 09:00:03;;;;;;;1.70;1.60;;;;;;;10.20;nan;97098.91;5006831;28;20204;-59
2022/09/19 09:02:41;;;;;;;2.10;1.80;;;;;;;10.08;nan;97080.00;5007663;28;20217;-56
2022/09/19 09:05:45;;;;;;;3.47;1.70;;;;;;;10.20;nan;97102.34;4998156;28;20740;-56
2022/09/19 09:08:21;;;;;;;2.23;1.50;;;;;;;10.34;nan;97095.41;5006993;28;20216;-59
2022/09/19 09:10:54;;;;;;;3.60;3.30;;;;;;;10.28;nan;97109.38;4991064;28;20223;-56
2022/09/19 09:13:35;;;;;;;4.03;1.83;;;;;;;10.14;nan;97122.47;4987155;28;20296;-57
2022/09/19 09:16:32;;;;;;;1.77;1.63;;;;;;;9.83;nan;97110.22;5007107;28;20212;-55
2022/09/19 09:19:17;;;;;;;1.60;1.47;;;;;;;9.97;nan;97124.47;4957232;28;20571;-57
2022/09/19 09:21:54;;;;;;;2.10;2.00;;;;;;;10.06;nan;97111.13;5001886;28;20208;-56
2022/09/19 09:24:23;;;;;;;2.30;2.10;;;;;;;10.10;nan;97115.91;5006783;28;20239;-56
2022/09/19 09:27:03;;;;;;;1.70;1.60;;;;;;;10.07;nan;97128.66;4982486;28;20215;-61
2022/09/19 09:29:34;;;;;;;1.97;1.87;;;;;;;9.76;nan;97126.97;4989049;28;20599;-56
2022/09/19 09:32:08;;;;;;;2.17;1.93;;;;;;;9.98;nan;97127.91;5002292;28;20231;-58
2022/09/19 09:34:40;;;;;;;2.30;1.90;;;;;;;9.92;nan;97132.13;4959205;28;20515;-57
2022/09/19 09:37:19;;;;;;;2.50;1.83;;;;;;;10.20;nan;97133.31;5002418;28;20848;-56
2022/09/19 09:40:00;;;;;;;3.63;1.97;;;;;;;10.05;nan;97123.56;4947081;28;20509;-57
2022/09/19 09:42:32;;;;;;;2.30;2.10;;;;;;;10.20;nan;97133.31;5002714;28;20208;-60
2022/09/19 09:45:06;;;;;;;4.30;2.17;;;;;;;10.20;nan;97128.03;5005579;28;20243;-57
2022/09/19 09:47:44;;;;;;;6.20;2.70;;;;;;;10.33;nan;97127.38;5005104;28;20219;-57
2022/09/19 09:50:48;;;;;;;3.30;1.90;;;;;;;10.60;nan;97133.88;5004206;28;20211;-57
2022/09/19 09:53:46;;;;;;;2.40;2.30;;;;;;;10.88;nan;97135.81;4978080;28;20230;-58
2022/09/19 09:56:35;;;;;;;2.57;2.10;;;;;;;11.21;nan;97138.00;4951268;28;20274;-59
2022/09/19 10:03:34;;;;;;;1.67;1.57;;;;;;;11.37;nan;97126.31;4992575;28;20201;-58
2022/09/19 10:05:03;;;;;;;2.40;1.90;;;;;;;11.71;nan;97145.97;4989216;28;20766;-55
2022/09/19 10:07:36;;;;;;;2.13;1.93;;;;;;;11.68;nan;97159.63;4992057;28;20189;-55
2022/09/19 10:10:13;;;;;;;1.73;1.63;;;;;;;11.46;nan;97134.94;4966532;28;20228;-58
2022/09/19 10:12:44;;;;;;;2.00;1.90;;;;;;;11.51;nan;97148.47;4987291;28;20220;-58
2022/09/19 10:15:22;;;;;;;1.50;1.40;;;;;;;11.29;nan;97155.59;4982487;28;20869;-58
2022/09/19 10:18:04;;;;;;;2.93;1.63;;;;;;;11.11;nan;97170.13;4985428;28;20209;-57
2022/09/19 10:20:36;;;;;;;3.73;2.20;;;;;;;10.68;nan;97175.34;4986360;28;20230;-58
2022/09/19 10:23:04;;;;;;;1.87;1.77;;;;;;;10.77;nan;97171.56;4989761;28;20232;-57
2022/09/19 10:25:34;;;;;;;2.57;2.00;;;;;;;10.54;nan;97183.09;4943979;28;21119;-53
2022/09/19 10:28:17;;;;;;;2.83;1.90;;;;;;;10.32;nan;97186.66;4984588;28;20204;-54
2022/09/19 10:30:56;;;;;;;2.50;2.00;;;;;;;10.31;nan;97192.97;4987831;28;20232;-55
2022/09/19 10:33:38;;;;;;;4.27;2.20;;;;;;;10.44;nan;97179.91;4987933;28;20224;-55
2022/09/19 10:36:08;;;;;;;2.77;2.10;;;;;;;11.25;nan;97187.00;4985025;28;20209;-56
2022/09/19 10:38:53;;;;;;;2.20;2.00;;;;;;;12.02;nan;97189.94;4986133;28;20205;-59
2022/09/19 10:41:25;;;;;;;2.60;1.93;;;;;;;11.85;nan;97183.25;4942889;28;21204;-56
2022/09/19 10:43:56;;;;;;;3.20;2.47;;;;;;;12.17;nan;97186.38;4985090;28;20630;-56
2022/09/19 10:46:35;;;;;;;3.83;2.10;;;;;;;11.99;nan;97179.69;4986423;28;20212;-54
2022/09/19 10:49:06;;;;;;;3.77;2.40;;;;;;;11.35;nan;97185.88;4986700;28;20216;-56
2022/09/19 10:51:37;;;;;;;2.37;2.10;;;;;;;11.79;nan;97189.34;4985636;28;20282;-59
2022/09/19 10:54:11;;;;;;;2.50;1.80;;;;;;;11.69;nan;97185.16;4987544;28;20236;-57
2022/09/19 10:56:42;;;;;;;4.03;2.30;;;;;;;12.16;nan;97190.88;4945259;28;20212;-58
2022/09/19 10:59:25;;;;;;;2.43;2.23;;;;;;;11.55;nan;97192.22;4984767;28;20209;-57
2022/09/19 11:02:19;;;;;;;3.77;2.00;;;;;;;10.97;nan;97198.31;4986854;28;20216;-57
2022/09/19 11:05:02;;;;;;;3.37;1.80;;;;;;;11.61;nan;97192.44;4985669;28;20252;-58
2022/09/19 11:07:33;;;;;;;2.00;1.90;;;;;;;11.82;nan;97195.06;4985961;28;20216;-56
2022/09/19 11:10:09;;;;;;;2.87;2.00;;;;;;;11.94;nan;97191.91;4985553;28;20740;-55
2022/09/19 11:12:41;;;;;;;2.20;2.10;;;;;;;12.43;nan;97180.41;4947410;28;20215;-57
2022/09/19 11:15:16;;;;;;;11.73;2.00;;;;;;;12.86;nan;97194.53;4982386;28;20221;-57
2022/09/19 11:17:57;;;;;;;5.97;2.07;;;;;;;12.77;nan;97187.75;4988119;28;20253;-58
2022/09/19 11:20:33;;;;;;;2.87;2.00;;;;;;;12.67;nan;97193.41;4988529;28;20317;-58
2022/09/19 11:23:17;;;;;;;3.07;1.70;;;;;;;12.41;nan;97189.59;4985213;28;20220;-53
2022/09/19 11:25:50;;;;;;;1.67;1.40;;;;;;;12.39;nan;97183.66;4986724;28;20225;-57
2022/09/19 11:28:26;;;;;;;3.30;2.10;;;;;;;12.30;nan;97193.59;4932176;28;22235;-55
2022/09/19 11:31:05;;;;;;;4.20;2.07;;;;;;;12.33;nan;97198.56;4985611;28;20247;-55
2022/09/19 11:33:46;;;;;;;2.50;2.40;;;;;;;11.40;nan;97207.34;4984823;28;20255;-57
2022/09/19 11:36:42;;;;;;;2.13;1.93;;;;;;;9.13;nan;97228.44;4962394;28;20203;-52
2022/09/19 11:39:16;;;;;;;2.30;2.10;;;;;;;8.57;nan;97226.72;4980491;28;20306;-56
2022/09/19 11:42:14;;;;;;;2.40;2.20;;;;;;;8.51;nan;97228.19;4980996;28;20219;-55
2022/09/19 11:44:52;;;;;;;2.03;1.93;;;;;;;9.04;nan;97226.84;4943482;28;20243;-58
2022/09/19 11:48:03;;;;;;;7.03;3.07;;;;;;;9.41;nan;97230.59;4926740;28;20217;-58
2022/09/19 11:50:45;;;;;;;3.50;3.20;;;;;;;9.99;nan;97227.50;4975419;28;20747;-55
2022/09/19 11:53:28;;;;;;;3.43;3.13;;;;;;;10.09;nan;97230.72;4989540;28;20239;-57
2022/09/19 11:56:08;;;;;;;3.73;3.47;;;;;;;9.79;nan;97222.72;4970589;28;20247;-59
2022/09/19 11:58:44;;;;;;;5.90;3.20;;;;;;;9.76;nan;97225.72;4983817;28;20232;-59
2022/09/19 12:01:25;;;;;;;3.67;3.37;;;;;;;9.88;nan;97220.00;4923166;28;20220;-58
2022/09/19 12:04:01;;;;;;;3.00;2.73;;;;;;;9.76;nan;97224.88;4988618;28;20232;-56
2022/09/19 12:06:48;;;;;;;3.37;3.10;;;;;;;9.34;nan;97216.44;4985265;28;20900;-58
2022/09/19 12:09:19;;;;;;;3.20;2.90;;;;;;;9.31;nan;97217.59;4984361;28;20243;-55
2022/09/19 12:11:54;;;;;;;6.43;3.97;;;;;;;9.48;nan;97210.38;4987884;28;20264;-57
2022/09/19 12:14:25;;;;;;;7.73;4.20;;;;;;;9.83;nan;97210.75;4986352;28;20586;-55
2022/09/19 12:16:57;;;;;;;3.67;3.13;;;;;;;10.26;nan;97214.66;4937372;28;20531;-58
2022/09/19 12:19:34;;;;;;;3.87;3.43;;;;;;;10.37;nan;97192.22;4984183;28;21491;-58
2022/09/19 12:22:06;;;;;;;3.80;3.50;;;;;;;10.24;nan;97208.75;4985649;28;20216;-57
2022/09/19 12:24:52;;;;;;;3.27;2.80;;;;;;;10.30;nan;97202.72;4986412;28;20228;-54
2022/09/19 12:27:27;;;;;;;4.40;2.77;;;;;;;10.17;nan;97200.69;4985259;28;20215;-57
2022/09/19 12:30:05;;;;;;;3.60;3.13;;;;;;;10.45;nan;97194.00;4988214;28;20239;-57
2022/09/19 12:32:41;;;;;;;3.43;2.97;;;;;;;10.77;nan;97190.13;4935171;28;20430;-62
2022/09/19 12:35:19;;;;;;;3.50;3.20;;;;;;;10.86;nan;97185.56;4981854;28;20589;-58